sensor_id;sensor_type;location;lat;lon;timestamp;P1;durP1;ratioP1;P2;durP2;ratioP2
83288;SDS011;73193;50.866;5.420;2024-02-15T00:00:32;9.40;;;3.35;;
83288;SDS011;73193;50.866;5.420;2024-02-15T00:02:04;11.05;;;4.47;;
83288;SDS011;73193;50.866;5.420;2024-02-15T00:03:34;6.15;;;3.17;;
83288;SDS011;73193;50.866;5.420;2024-02-15T00:05:06;10.40;;;3.30;;
83288;SDS011;73193;50.866;5.420;2024-02-15T00:06:38;10.55;;;3.55;;
83288;SDS011;73193;50.866;5.420;2024-02-15T00:08:08;9.18;;;3.83;;
83288;SDS011;73193;50.866;5.420;2024-02-15T00:09:39;9.02;;;3.60;;
83288;SDS011;73193;50.866;5.420;2024-02-15T00:11:10;5.38;;;3.17;;
83288;SDS011;73193;50.866;5.420;2024-02-15T00:12:41;4.93;;;2.90;;
83288;SDS011;73193;50.866;5.420;2024-02-15T00:14:11;5.80;;;3.58;;
83288;SDS011;73193;50.866;5.420;2024-02-15T00:15:42;6.40;;;3.20;;
83288;SDS011;73193;50.866;5.420;2024-02-15T00:17:13;10.32;;;3.50;;
83288;SDS011;73193;50.866;5.420;2024-02-15T00:18:43;8.20;;;3.08;;
83288;SDS011;73193;50.866;5.420;2024-02-15T00:20:14;6.53;;;3.08;;
83288;SDS011;73193;50.866;5.420;2024-02-15T00:21:47;13.32;;;4.03;;
83288;SDS011;73193;50.866;5.420;2024-02-15T00:23:18;9.88;;;3.60;;
83288;SDS011;73193;50.866;5.420;2024-02-15T00:24:49;9.35;;;3.95;;
83288;SDS011;73193;50.866;5.420;2024-02-15T00:26:21;9.60;;;3.97;;
83288;SDS011;73193;50.866;5.420;2024-02-15T00:27:51;6.22;;;3.30;;
83288;SDS011;73193;50.866;5.420;2024-02-15T00:29:22;7.85;;;3.50;;
83288;SDS011;73193;50.866;5.420;2024-02-15T00:32:24;8.40;;;3.25;;
83288;SDS011;73193;50.866;5.420;2024-02-15T00:33:55;9.15;;;3.40;;
83288;SDS011;73193;50.866;5.420;2024-02-15T00:35:25;8.85;;;3.30;;
83288;SDS011;73193;50.866;5.420;2024-02-15T00:36:57;9.07;;;3.20;;
83288;SDS011;73193;50.866;5.420;2024-02-15T00:38:28;7.05;;;3.38;;
83288;SDS011;73193;50.866;5.420;2024-02-15T00:39:58;9.43;;;3.90;;
83288;SDS011;73193;50.866;5.420;2024-02-15T00:41:29;6.70;;;2.97;;
83288;SDS011;73193;50.866;5.420;2024-02-15T00:43:03;11.15;;;3.70;;
83288;SDS011;73193;50.866;5.420;2024-02-15T00:44:34;8.35;;;3.35;;
83288;SDS011;73193;50.866;5.420;2024-02-15T00:46:05;9.60;;;3.22;;
83288;SDS011;73193;50.866;5.420;2024-02-15T00:47:36;7.10;;;3.22;;
83288;SDS011;73193;50.866;5.420;2024-02-15T00:49:08;7.05;;;3.13;;
83288;SDS011;73193;50.866;5.420;2024-02-15T00:50:38;7.68;;;3.75;;
83288;SDS011;73193;50.866;5.420;2024-02-15T00:52:09;9.48;;;3.20;;
83288;SDS011;73193;50.866;5.420;2024-02-15T00:53:40;7.65;;;2.92;;
83288;SDS011;73193;50.866;5.420;2024-02-15T00:55:10;7.43;;;3.20;;
83288;SDS011;73193;50.866;5.420;2024-02-15T00:56:41;6.13;;;3.38;;
83288;SDS011;73193;50.866;5.420;2024-02-15T00:58:12;7.55;;;3.22;;
83288;SDS011;73193;50.866;5.420;2024-02-15T00:59:42;9.88;;;3.15;;
83288;SDS011;73193;50.866;5.420;2024-02-15T01:01:13;7.70;;;3.28;;
83288;SDS011;73193;50.866;5.420;2024-02-15T01:02:43;6.85;;;3.15;;
83288;SDS011;73193;50.866;5.420;2024-02-15T01:04:15;5.78;;;2.90;;
83288;SDS011;73193;50.866;5.420;2024-02-15T01:05:46;5.50;;;2.63;;
83288;SDS011;73193;50.866;5.420;2024-02-15T01:07:17;8.23;;;3.20;;
83288;SDS011;73193;50.866;5.420;2024-02-15T01:08:47;8.32;;;3.33;;
83288;SDS011;73193;50.866;5.420;2024-02-15T01:10:18;6.70;;;2.83;;
83288;SDS011;73193;50.866;5.420;2024-02-15T01:11:49;8.20;;;3.10;;
83288;SDS011;73193;50.866;5.420;2024-02-15T01:13:20;10.82;;;2.80;;
83288;SDS011;73193;50.866;5.420;2024-02-15T01:14:51;6.78;;;2.47;;
83288;SDS011;73193;50.866;5.420;2024-02-15T01:16:21;6.53;;;2.90;;
83288;SDS011;73193;50.866;5.420;2024-02-15T01:17:52;5.90;;;2.70;;
83288;SDS011;73193;50.866;5.420;2024-02-15T01:19:23;5.68;;;2.47;;
83288;SDS011;73193;50.866;5.420;2024-02-15T01:20:53;5.65;;;2.55;;
83288;SDS011;73193;50.866;5.420;2024-02-15T01:22:24;6.53;;;2.53;;
83288;SDS011;73193;50.866;5.420;2024-02-15T01:23:57;6.63;;;2.90;;
83288;SDS011;73193;50.866;5.420;2024-02-15T01:25:27;6.47;;;2.85;;
83288;SDS011;73193;50.866;5.420;2024-02-15T01:26:58;5.10;;;2.25;;
83288;SDS011;73193;50.866;5.420;2024-02-15T01:28:29;7.78;;;2.70;;
83288;SDS011;73193;50.866;5.420;2024-02-15T01:29:59;5.53;;;2.35;;
83288;SDS011;73193;50.866;5.420;2024-02-15T01:31:30;6.35;;;2.40;;
83288;SDS011;73193;50.866;5.420;2024-02-15T01:33:01;4.55;;;2.67;;
83288;SDS011;73193;50.866;5.420;2024-02-15T01:34:31;6.85;;;2.50;;
83288;SDS011;73193;50.866;5.420;2024-02-15T01:36:03;4.90;;;2.30;;
83288;SDS011;73193;50.866;5.420;2024-02-15T01:37:34;8.45;;;2.60;;
83288;SDS011;73193;50.866;5.420;2024-02-15T01:39:05;6.47;;;2.75;;
83288;SDS011;73193;50.866;5.420;2024-02-15T01:40:35;5.75;;;2.70;;
83288;SDS011;73193;50.866;5.420;2024-02-15T01:42:06;5.13;;;2.40;;
83288;SDS011;73193;50.866;5.420;2024-02-15T01:43:37;8.13;;;2.78;;
83288;SDS011;73193;50.866;5.420;2024-02-15T01:45:08;6.43;;;2.65;;
83288;SDS011;73193;50.866;5.420;2024-02-15T01:46:41;4.18;;;2.55;;
83288;SDS011;73193;50.866;5.420;2024-02-15T01:48:16;5.75;;;2.53;;
83288;SDS011;73193;50.866;5.420;2024-02-15T01:49:47;8.20;;;3.20;;
83288;SDS011;73193;50.866;5.420;2024-02-15T01:51:18;5.78;;;2.45;;
83288;SDS011;73193;50.866;5.420;2024-02-15T01:52:49;7.57;;;2.40;;
83288;SDS011;73193;50.866;5.420;2024-02-15T01:54:23;6.32;;;2.53;;
83288;SDS011;73193;50.866;5.420;2024-02-15T01:55:54;4.60;;;2.38;;
83288;SDS011;73193;50.866;5.420;2024-02-15T01:57:27;7.25;;;3.00;;
83288;SDS011;73193;50.866;5.420;2024-02-15T01:58:58;7.30;;;2.70;;
83288;SDS011;73193;50.866;5.420;2024-02-15T02:00:30;7.88;;;2.50;;
83288;SDS011;73193;50.866;5.420;2024-02-15T02:02:01;4.90;;;2.25;;
83288;SDS011;73193;50.866;5.420;2024-02-15T02:03:34;7.22;;;2.33;;
83288;SDS011;73193;50.866;5.420;2024-02-15T02:05:05;4.57;;;2.70;;
83288;SDS011;73193;50.866;5.420;2024-02-15T02:06:39;6.40;;;2.40;;
83288;SDS011;73193;50.866;5.420;2024-02-15T02:08:10;7.75;;;2.47;;
83288;SDS011;73193;50.866;5.420;2024-02-15T02:09:41;6.28;;;2.38;;
83288;SDS011;73193;50.866;5.420;2024-02-15T02:11:12;5.80;;;2.58;;
83288;SDS011;73193;50.866;5.420;2024-02-15T02:12:43;7.07;;;2.20;;
83288;SDS011;73193;50.866;5.420;2024-02-15T02:15:44;5.60;;;1.92;;
83288;SDS011;73193;50.866;5.420;2024-02-15T02:17:15;6.55;;;2.17;;
83288;SDS011;73193;50.866;5.420;2024-02-15T02:18:46;9.73;;;2.13;;
83288;SDS011;73193;50.866;5.420;2024-02-15T02:20:17;4.90;;;2.42;;
83288;SDS011;73193;50.866;5.420;2024-02-15T02:21:47;4.30;;;2.25;;
83288;SDS011;73193;50.866;5.420;2024-02-15T02:23:21;4.78;;;1.88;;
83288;SDS011;73193;50.866;5.420;2024-02-15T02:26:38;4.82;;;1.90;;
83288;SDS011;73193;50.866;5.420;2024-02-15T02:28:08;7.03;;;2.08;;
83288;SDS011;73193;50.866;5.420;2024-02-15T02:29:43;5.95;;;2.15;;
83288;SDS011;73193;50.866;5.420;2024-02-15T02:31:16;5.57;;;1.80;;
83288;SDS011;73193;50.866;5.420;2024-02-15T02:32:47;10.07;;;2.65;;
83288;SDS011;73193;50.866;5.420;2024-02-15T02:34:18;6.88;;;1.83;;
83288;SDS011;73193;50.866;5.420;2024-02-15T02:35:49;5.78;;;1.67;;
83288;SDS011;73193;50.866;5.420;2024-02-15T02:37:20;7.80;;;1.83;;
83288;SDS011;73193;50.866;5.420;2024-02-15T02:38:50;6.72;;;1.73;;
83288;SDS011;73193;50.866;5.420;2024-02-15T02:40:21;3.72;;;1.80;;
83288;SDS011;73193;50.866;5.420;2024-02-15T02:41:52;5.68;;;1.63;;
83288;SDS011;73193;50.866;5.420;2024-02-15T02:43:22;3.47;;;1.77;;
83288;SDS011;73193;50.866;5.420;2024-02-15T02:44:53;5.25;;;2.20;;
83288;SDS011;73193;50.866;5.420;2024-02-15T02:46:24;5.07;;;1.52;;
83288;SDS011;73193;50.866;5.420;2024-02-15T02:49:26;4.50;;;1.63;;
83288;SDS011;73193;50.866;5.420;2024-02-15T02:50:56;3.58;;;1.35;;
83288;SDS011;73193;50.866;5.420;2024-02-15T02:52:27;3.22;;;1.33;;
83288;SDS011;73193;50.866;5.420;2024-02-15T02:53:58;4.95;;;1.38;;
83288;SDS011;73193;50.866;5.420;2024-02-15T02:55:29;6.57;;;2.00;;
83288;SDS011;73193;50.866;5.420;2024-02-15T02:57:00;3.40;;;1.58;;
83288;SDS011;73193;50.866;5.420;2024-02-15T02:58:31;5.75;;;1.75;;
83288;SDS011;73193;50.866;5.420;2024-02-15T03:00:02;3.95;;;1.63;;
83288;SDS011;73193;50.866;5.420;2024-02-15T03:01:37;3.22;;;1.40;;
83288;SDS011;73193;50.866;5.420;2024-02-15T03:03:09;4.93;;;1.63;;
83288;SDS011;73193;50.866;5.420;2024-02-15T03:04:40;5.82;;;1.50;;
83288;SDS011;73193;50.866;5.420;2024-02-15T03:06:10;6.07;;;1.77;;
83288;SDS011;73193;50.866;5.420;2024-02-15T03:07:41;5.35;;;1.52;;
83288;SDS011;73193;50.866;5.420;2024-02-15T03:09:12;4.63;;;1.15;;
83288;SDS011;73193;50.866;5.420;2024-02-15T03:10:44;5.95;;;2.00;;
83288;SDS011;73193;50.866;5.420;2024-02-15T03:12:15;4.07;;;1.70;;
83288;SDS011;73193;50.866;5.420;2024-02-15T03:13:48;4.00;;;1.70;;
83288;SDS011;73193;50.866;5.420;2024-02-15T03:15:18;3.33;;;1.30;;
83288;SDS011;73193;50.866;5.420;2024-02-15T03:16:50;5.72;;;1.60;;
83288;SDS011;73193;50.866;5.420;2024-02-15T03:18:21;5.50;;;1.48;;
83288;SDS011;73193;50.866;5.420;2024-02-15T03:19:54;3.72;;;1.52;;
83288;SDS011;73193;50.866;5.420;2024-02-15T03:22:57;3.78;;;1.63;;
83288;SDS011;73193;50.866;5.420;2024-02-15T03:24:28;3.75;;;1.40;;
83288;SDS011;73193;50.866;5.420;2024-02-15T03:25:58;4.57;;;1.60;;
83288;SDS011;73193;50.866;5.420;2024-02-15T03:27:29;5.03;;;1.60;;
83288;SDS011;73193;50.866;5.420;2024-02-15T03:28:59;4.45;;;1.30;;
83288;SDS011;73193;50.866;5.420;2024-02-15T03:30:30;3.03;;;1.50;;
83288;SDS011;73193;50.866;5.420;2024-02-15T03:32:03;4.20;;;1.58;;
83288;SDS011;73193;50.866;5.420;2024-02-15T03:33:35;4.05;;;1.40;;
83288;SDS011;73193;50.866;5.420;2024-02-15T03:35:06;3.50;;;1.33;;
83288;SDS011;73193;50.866;5.420;2024-02-15T03:36:37;4.35;;;1.30;;
83288;SDS011;73193;50.866;5.420;2024-02-15T03:38:08;4.18;;;1.55;;
83288;SDS011;73193;50.866;5.420;2024-02-15T03:39:38;5.00;;;1.17;;
83288;SDS011;73193;50.866;5.420;2024-02-15T03:41:09;3.33;;;1.70;;
83288;SDS011;73193;50.866;5.420;2024-02-15T03:42:40;4.75;;;1.60;;
83288;SDS011;73193;50.866;5.420;2024-02-15T03:44:11;5.70;;;1.30;;
83288;SDS011;73193;50.866;5.420;2024-02-15T03:45:42;4.45;;;1.40;;
83288;SDS011;73193;50.866;5.420;2024-02-15T03:47:14;3.97;;;1.30;;
83288;SDS011;73193;50.866;5.420;2024-02-15T03:48:45;3.30;;;1.30;;
83288;SDS011;73193;50.866;5.420;2024-02-15T03:50:16;3.95;;;1.30;;
83288;SDS011;73193;50.866;5.420;2024-02-15T03:51:47;3.33;;;1.35;;
83288;SDS011;73193;50.866;5.420;2024-02-15T03:53:19;6.80;;;1.85;;
83288;SDS011;73193;50.866;5.420;2024-02-15T03:54:49;4.60;;;1.40;;
83288;SDS011;73193;50.866;5.420;2024-02-15T03:56:20;3.60;;;1.27;;
83288;SDS011;73193;50.866;5.420;2024-02-15T03:57:53;4.20;;;1.63;;
83288;SDS011;73193;50.866;5.420;2024-02-15T03:59:25;6.68;;;1.50;;
83288;SDS011;73193;50.866;5.420;2024-02-15T04:00:56;4.78;;;1.55;;
83288;SDS011;73193;50.866;5.420;2024-02-15T04:02:27;3.20;;;1.30;;
83288;SDS011;73193;50.866;5.420;2024-02-15T04:03:59;3.58;;;1.30;;
83288;SDS011;73193;50.866;5.420;2024-02-15T04:05:30;7.05;;;1.50;;
83288;SDS011;73193;50.866;5.420;2024-02-15T04:07:00;4.82;;;1.48;;
83288;SDS011;73193;50.866;5.420;2024-02-15T04:08:31;5.63;;;1.80;;
83288;SDS011;73193;50.866;5.420;2024-02-15T04:10:04;5.55;;;1.73;;
83288;SDS011;73193;50.866;5.420;2024-02-15T04:11:36;3.50;;;1.30;;
83288;SDS011;73193;50.866;5.420;2024-02-15T04:13:08;6.28;;;1.80;;
83288;SDS011;73193;50.866;5.420;2024-02-15T04:14:38;6.63;;;1.63;;
83288;SDS011;73193;50.866;5.420;2024-02-15T04:16:10;5.65;;;1.30;;
83288;SDS011;73193;50.866;5.420;2024-02-15T04:17:41;3.20;;;1.25;;
83288;SDS011;73193;50.866;5.420;2024-02-15T04:19:12;7.05;;;1.50;;
83288;SDS011;73193;50.866;5.420;2024-02-15T04:20:43;5.88;;;1.92;;
83288;SDS011;73193;50.866;5.420;2024-02-15T04:22:16;2.45;;;1.20;;
83288;SDS011;73193;50.866;5.420;2024-02-15T04:23:46;1.95;;;1.20;;
83288;SDS011;73193;50.866;5.420;2024-02-15T04:25:17;4.28;;;1.20;;
83288;SDS011;73193;50.866;5.420;2024-02-15T04:26:50;4.05;;;1.77;;
83288;SDS011;73193;50.866;5.420;2024-02-15T04:29:52;3.33;;;1.35;;
83288;SDS011;73193;50.866;5.420;2024-02-15T04:31:22;4.38;;;1.70;;
83288;SDS011;73193;50.866;5.420;2024-02-15T04:32:56;5.15;;;1.30;;
83288;SDS011;73193;50.866;5.420;2024-02-15T04:34:26;4.53;;;1.50;;
83288;SDS011;73193;50.866;5.420;2024-02-15T04:35:57;2.85;;;1.20;;
83288;SDS011;73193;50.866;5.420;2024-02-15T04:37:28;4.25;;;1.48;;
83288;SDS011;73193;50.866;5.420;2024-02-15T04:39:02;3.60;;;1.13;;
83288;SDS011;73193;50.866;5.420;2024-02-15T04:40:32;4.38;;;1.40;;
83288;SDS011;73193;50.866;5.420;2024-02-15T04:42:03;4.18;;;1.35;;
83288;SDS011;73193;50.866;5.420;2024-02-15T04:43:36;4.38;;;1.63;;
83288;SDS011;73193;50.866;5.420;2024-02-15T04:45:10;3.05;;;1.40;;
83288;SDS011;73193;50.866;5.420;2024-02-15T04:46:43;5.43;;;1.75;;
83288;SDS011;73193;50.866;5.420;2024-02-15T04:48:15;3.33;;;1.40;;
83288;SDS011;73193;50.866;5.420;2024-02-15T04:49:47;4.32;;;1.50;;
83288;SDS011;73193;50.866;5.420;2024-02-15T04:51:18;3.88;;;1.23;;
83288;SDS011;73193;50.866;5.420;2024-02-15T04:52:49;4.90;;;1.55;;
83288;SDS011;73193;50.866;5.420;2024-02-15T04:54:20;5.65;;;1.70;;
83288;SDS011;73193;50.866;5.420;2024-02-15T04:55:51;4.45;;;1.40;;
83288;SDS011;73193;50.866;5.420;2024-02-15T04:57:22;4.85;;;1.35;;
83288;SDS011;73193;50.866;5.420;2024-02-15T04:58:53;2.05;;;1.20;;
83288;SDS011;73193;50.866;5.420;2024-02-15T05:00:23;4.20;;;1.20;;
83288;SDS011;73193;50.866;5.420;2024-02-15T05:01:55;3.28;;;1.30;;
83288;SDS011;73193;50.866;5.420;2024-02-15T05:03:28;4.95;;;1.65;;
83288;SDS011;73193;50.866;5.420;2024-02-15T05:04:59;2.50;;;1.40;;
83288;SDS011;73193;50.866;5.420;2024-02-15T05:06:29;3.50;;;1.50;;
83288;SDS011;73193;50.866;5.420;2024-02-15T05:08:01;4.68;;;1.52;;
83288;SDS011;73193;50.866;5.420;2024-02-15T05:09:31;3.78;;;1.52;;
83288;SDS011;73193;50.866;5.420;2024-02-15T05:11:02;4.10;;;1.30;;
83288;SDS011;73193;50.866;5.420;2024-02-15T05:12:34;3.65;;;1.40;;
83288;SDS011;73193;50.866;5.420;2024-02-15T05:14:05;3.05;;;1.10;;
83288;SDS011;73193;50.866;5.420;2024-02-15T05:15:37;5.20;;;1.17;;
83288;SDS011;73193;50.866;5.420;2024-02-15T05:17:08;4.38;;;1.48;;
83288;SDS011;73193;50.866;5.420;2024-02-15T05:18:42;4.22;;;1.33;;
83288;SDS011;73193;50.866;5.420;2024-02-15T05:20:16;3.13;;;1.30;;
83288;SDS011;73193;50.866;5.420;2024-02-15T05:21:46;3.55;;;1.20;;
83288;SDS011;73193;50.866;5.420;2024-02-15T05:23:17;2.78;;;1.50;;
83288;SDS011;73193;50.866;5.420;2024-02-15T05:24:48;4.10;;;1.33;;
83288;SDS011;73193;50.866;5.420;2024-02-15T05:26:18;5.03;;;1.33;;
83288;SDS011;73193;50.866;5.420;2024-02-15T05:27:53;3.00;;;1.38;;
83288;SDS011;73193;50.866;5.420;2024-02-15T05:29:24;4.43;;;1.50;;
83288;SDS011;73193;50.866;5.420;2024-02-15T05:31:11;4.43;;;1.20;;
83288;SDS011;73193;50.866;5.420;2024-02-15T05:32:47;2.97;;;1.10;;
83288;SDS011;73193;50.866;5.420;2024-02-15T05:34:18;4.40;;;1.63;;
83288;SDS011;73193;50.866;5.420;2024-02-15T05:35:48;3.15;;;1.38;;
83288;SDS011;73193;50.866;5.420;2024-02-15T05:37:21;4.10;;;1.33;;
83288;SDS011;73193;50.866;5.420;2024-02-15T05:38:53;2.90;;;1.40;;
83288;SDS011;73193;50.866;5.420;2024-02-15T05:40:24;3.22;;;1.00;;
83288;SDS011;73193;50.866;5.420;2024-02-15T05:41:55;2.60;;;1.13;;
83288;SDS011;73193;50.866;5.420;2024-02-15T05:43:31;4.15;;;1.30;;
83288;SDS011;73193;50.866;5.420;2024-02-15T05:45:24;4.18;;;1.23;;
83288;SDS011;73193;50.866;5.420;2024-02-15T05:47:05;4.22;;;1.35;;
83288;SDS011;73193;50.866;5.420;2024-02-15T05:48:36;5.90;;;1.33;;
83288;SDS011;73193;50.866;5.420;2024-02-15T05:51:38;2.58;;;1.10;;
83288;SDS011;73193;50.866;5.420;2024-02-15T05:53:08;3.88;;;1.30;;
83288;SDS011;73193;50.866;5.420;2024-02-15T05:54:39;5.47;;;1.30;;
83288;SDS011;73193;50.866;5.420;2024-02-15T05:56:11;3.20;;;1.30;;
83288;SDS011;73193;50.866;5.420;2024-02-15T05:57:43;3.10;;;1.40;;
83288;SDS011;73193;50.866;5.420;2024-02-15T05:59:14;5.82;;;1.80;;
83288;SDS011;73193;50.866;5.420;2024-02-15T06:00:46;3.20;;;1.17;;
83288;SDS011;73193;50.866;5.420;2024-02-15T06:02:19;3.67;;;1.10;;
83288;SDS011;73193;50.866;5.420;2024-02-15T06:03:50;4.55;;;1.63;;
83288;SDS011;73193;50.866;5.420;2024-02-15T06:05:25;2.35;;;1.10;;
83288;SDS011;73193;50.866;5.420;2024-02-15T06:06:56;2.10;;;1.08;;
83288;SDS011;73193;50.866;5.420;2024-02-15T06:08:30;2.63;;;1.33;;
83288;SDS011;73193;50.866;5.420;2024-02-15T06:10:01;4.20;;;1.40;;
83288;SDS011;73193;50.866;5.420;2024-02-15T06:11:33;5.10;;;1.30;;
83288;SDS011;73193;50.866;5.420;2024-02-15T06:13:04;3.03;;;1.33;;
83288;SDS011;73193;50.866;5.420;2024-02-15T06:14:34;3.40;;;1.23;;
83288;SDS011;73193;50.866;5.420;2024-02-15T06:16:06;2.88;;;1.05;;
83288;SDS011;73193;50.866;5.420;2024-02-15T06:17:40;3.65;;;1.02;;
83288;SDS011;73193;50.866;5.420;2024-02-15T06:19:13;3.72;;;1.10;;
83288;SDS011;73193;50.866;5.420;2024-02-15T06:20:44;3.67;;;1.23;;
83288;SDS011;73193;50.866;5.420;2024-02-15T06:22:17;4.18;;;1.13;;
83288;SDS011;73193;50.866;5.420;2024-02-15T06:23:48;3.53;;;1.02;;
83288;SDS011;73193;50.866;5.420;2024-02-15T06:25:20;3.47;;;0.88;;
83288;SDS011;73193;50.866;5.420;2024-02-15T06:26:51;5.28;;;1.27;;
83288;SDS011;73193;50.866;5.420;2024-02-15T06:28:27;2.42;;;0.90;;
83288;SDS011;73193;50.866;5.420;2024-02-15T06:30:17;2.10;;;1.08;;
83288;SDS011;73193;50.866;5.420;2024-02-15T06:32:06;3.78;;;0.90;;
83288;SDS011;73193;50.866;5.420;2024-02-15T06:33:55;3.80;;;1.00;;
83288;SDS011;73193;50.866;5.420;2024-02-15T06:35:44;2.72;;;1.30;;
83288;SDS011;73193;50.866;5.420;2024-02-15T06:37:37;2.95;;;1.00;;
83288;SDS011;73193;50.866;5.420;2024-02-15T06:39:27;4.20;;;1.27;;
83288;SDS011;73193;50.866;5.420;2024-02-15T06:41:13;2.95;;;0.90;;
83288;SDS011;73193;50.866;5.420;2024-02-15T06:42:44;4.40;;;1.17;;
83288;SDS011;73193;50.866;5.420;2024-02-15T06:44:14;3.35;;;1.08;;
83288;SDS011;73193;50.866;5.420;2024-02-15T06:45:45;2.83;;;0.98;;
83288;SDS011;73193;50.866;5.420;2024-02-15T06:47:16;2.70;;;1.05;;
83288;SDS011;73193;50.866;5.420;2024-02-15T06:48:49;6.10;;;1.30;;
83288;SDS011;73193;50.866;5.420;2024-02-15T06:50:19;2.13;;;1.25;;
83288;SDS011;73193;50.866;5.420;2024-02-15T06:51:50;3.00;;;1.02;;
83288;SDS011;73193;50.866;5.420;2024-02-15T06:53:21;3.13;;;0.90;;
83288;SDS011;73193;50.866;5.420;2024-02-15T06:54:52;4.95;;;1.30;;
83288;SDS011;73193;50.866;5.420;2024-02-15T06:57:54;2.17;;;0.82;;
83288;SDS011;73193;50.866;5.420;2024-02-15T06:59:25;6.03;;;1.00;;
83288;SDS011;73193;50.866;5.420;2024-02-15T07:00:55;4.28;;;1.20;;
83288;SDS011;73193;50.866;5.420;2024-02-15T07:02:26;4.30;;;0.93;;
83288;SDS011;73193;50.866;5.420;2024-02-15T07:03:57;3.55;;;0.90;;
83288;SDS011;73193;50.866;5.420;2024-02-15T07:05:27;3.22;;;0.95;;
83288;SDS011;73193;50.866;5.420;2024-02-15T07:06:58;3.20;;;0.88;;
83288;SDS011;73193;50.866;5.420;2024-02-15T07:08:31;2.95;;;0.80;;
83288;SDS011;73193;50.866;5.420;2024-02-15T07:10:02;2.65;;;0.90;;
83288;SDS011;73193;50.866;5.420;2024-02-15T07:11:33;3.15;;;1.05;;
83288;SDS011;73193;50.866;5.420;2024-02-15T07:13:06;1.45;;;0.85;;
83288;SDS011;73193;50.866;5.420;2024-02-15T07:14:37;2.00;;;0.98;;
83288;SDS011;73193;50.866;5.420;2024-02-15T07:16:08;3.08;;;0.95;;
83288;SDS011;73193;50.866;5.420;2024-02-15T07:17:38;2.05;;;0.70;;
83288;SDS011;73193;50.866;5.420;2024-02-15T07:19:10;2.75;;;0.75;;
83288;SDS011;73193;50.866;5.420;2024-02-15T07:20:40;4.30;;;1.00;;
83288;SDS011;73193;50.866;5.420;2024-02-15T07:22:11;2.95;;;1.05;;
83288;SDS011;73193;50.866;5.420;2024-02-15T07:23:42;2.72;;;1.20;;
83288;SDS011;73193;50.866;5.420;2024-02-15T07:25:13;2.95;;;0.80;;
83288;SDS011;73193;50.866;5.420;2024-02-15T07:26:44;4.50;;;0.98;;
83288;SDS011;73193;50.866;5.420;2024-02-15T07:28:15;8.25;;;1.20;;
83288;SDS011;73193;50.866;5.420;2024-02-15T07:29:45;4.22;;;1.00;;
83288;SDS011;73193;50.866;5.420;2024-02-15T07:31:16;1.45;;;0.82;;
83288;SDS011;73193;50.866;5.420;2024-02-15T07:32:46;2.75;;;0.70;;
83288;SDS011;73193;50.866;5.420;2024-02-15T07:34:17;2.85;;;0.90;;
83288;SDS011;73193;50.866;5.420;2024-02-15T07:35:49;4.10;;;1.10;;
83288;SDS011;73193;50.866;5.420;2024-02-15T07:37:23;2.58;;;0.70;;
83288;SDS011;73193;50.866;5.420;2024-02-15T07:38:56;2.30;;;0.80;;
83288;SDS011;73193;50.866;5.420;2024-02-15T07:40:30;2.22;;;0.90;;
83288;SDS011;73193;50.866;5.420;2024-02-15T07:42:01;1.83;;;0.85;;
83288;SDS011;73193;50.866;5.420;2024-02-15T07:43:34;2.13;;;0.90;;
83288;SDS011;73193;50.866;5.420;2024-02-15T07:45:05;3.17;;;1.05;;
83288;SDS011;73193;50.866;5.420;2024-02-15T07:46:36;5.55;;;1.10;;
83288;SDS011;73193;50.866;5.420;2024-02-15T07:48:08;2.50;;;0.90;;
83288;SDS011;73193;50.866;5.420;2024-02-15T07:49:39;2.70;;;0.60;;
83288;SDS011;73193;50.866;5.420;2024-02-15T07:51:15;3.72;;;0.90;;
83288;SDS011;73193;50.866;5.420;2024-02-15T07:52:48;1.90;;;0.77;;
83288;SDS011;73193;50.866;5.420;2024-02-15T07:54:19;2.33;;;0.80;;
83288;SDS011;73193;50.866;5.420;2024-02-15T07:55:53;3.75;;;0.80;;
83288;SDS011;73193;50.866;5.420;2024-02-15T07:57:24;2.35;;;0.75;;
83288;SDS011;73193;50.866;5.420;2024-02-15T08:00:26;4.45;;;0.80;;
83288;SDS011;73193;50.866;5.420;2024-02-15T08:03:28;1.25;;;0.55;;
83288;SDS011;73193;50.866;5.420;2024-02-15T08:06:30;3.38;;;0.80;;
83288;SDS011;73193;50.866;5.420;2024-02-15T08:08:02;3.75;;;1.00;;
83288;SDS011;73193;50.866;5.420;2024-02-15T08:09:33;2.55;;;0.77;;
83288;SDS011;73193;50.866;5.420;2024-02-15T08:11:05;3.17;;;0.90;;
83288;SDS011;73193;50.866;5.420;2024-02-15T08:12:40;2.72;;;0.93;;
83288;SDS011;73193;50.866;5.420;2024-02-15T08:14:12;2.78;;;1.25;;
83288;SDS011;73193;50.866;5.420;2024-02-15T08:15:43;3.25;;;0.93;;
83288;SDS011;73193;50.866;5.420;2024-02-15T08:17:14;1.92;;;0.90;;
83288;SDS011;73193;50.866;5.420;2024-02-15T08:18:45;2.25;;;0.93;;
83288;SDS011;73193;50.866;5.420;2024-02-15T08:20:16;2.35;;;0.80;;
83288;SDS011;73193;50.866;5.420;2024-02-15T08:21:51;2.13;;;1.02;;
83288;SDS011;73193;50.866;5.420;2024-02-15T08:23:22;1.65;;;0.70;;
83288;SDS011;73193;50.866;5.420;2024-02-15T08:24:52;2.97;;;0.88;;
83288;SDS011;73193;50.866;5.420;2024-02-15T08:26:23;2.80;;;0.80;;
83288;SDS011;73193;50.866;5.420;2024-02-15T08:27:54;1.70;;;0.75;;
83288;SDS011;73193;50.866;5.420;2024-02-15T08:29:25;3.03;;;0.77;;
83288;SDS011;73193;50.866;5.420;2024-02-15T08:30:57;5.53;;;0.75;;
83288;SDS011;73193;50.866;5.420;2024-02-15T08:32:28;2.90;;;0.70;;
83288;SDS011;73193;50.866;5.420;2024-02-15T08:33:59;2.55;;;0.90;;
83288;SDS011;73193;50.866;5.420;2024-02-15T08:35:30;3.58;;;0.95;;
83288;SDS011;73193;50.866;5.420;2024-02-15T08:37:02;1.92;;;0.93;;
83288;SDS011;73193;50.866;5.420;2024-02-15T08:38:33;1.10;;;0.60;;
83288;SDS011;73193;50.866;5.420;2024-02-15T08:40:04;2.45;;;0.70;;
83288;SDS011;73193;50.866;5.420;2024-02-15T08:41:45;1.08;;;0.60;;
83288;SDS011;73193;50.866;5.420;2024-02-15T08:43:16;2.65;;;0.80;;
83288;SDS011;73193;50.866;5.420;2024-02-15T08:44:46;2.15;;;0.73;;
83288;SDS011;73193;50.866;5.420;2024-02-15T08:46:20;2.53;;;0.80;;
83288;SDS011;73193;50.866;5.420;2024-02-15T08:47:51;2.80;;;0.80;;
83288;SDS011;73193;50.866;5.420;2024-02-15T08:49:24;2.38;;;1.00;;
83288;SDS011;73193;50.866;5.420;2024-02-15T08:50:57;3.15;;;1.05;;
83288;SDS011;73193;50.866;5.420;2024-02-15T08:52:28;5.10;;;0.95;;
83288;SDS011;73193;50.866;5.420;2024-02-15T08:53:58;3.33;;;0.90;;
83288;SDS011;73193;50.866;5.420;2024-02-15T08:57:00;3.92;;;0.70;;
83288;SDS011;73193;50.866;5.420;2024-02-15T08:58:31;3.05;;;0.88;;
83288;SDS011;73193;50.866;5.420;2024-02-15T09:00:05;3.80;;;0.80;;
83288;SDS011;73193;50.866;5.420;2024-02-15T09:01:43;1.70;;;0.70;;
83288;SDS011;73193;50.866;5.420;2024-02-15T09:03:13;1.67;;;0.60;;
83288;SDS011;73193;50.866;5.420;2024-02-15T09:04:44;2.17;;;0.75;;
83288;SDS011;73193;50.866;5.420;2024-02-15T09:06:15;1.50;;;0.60;;
83288;SDS011;73193;50.866;5.420;2024-02-15T09:07:45;6.43;;;1.10;;
83288;SDS011;73193;50.866;5.420;2024-02-15T09:09:21;2.58;;;0.90;;
83288;SDS011;73193;50.866;5.420;2024-02-15T09:10:51;2.05;;;0.82;;
83288;SDS011;73193;50.866;5.420;2024-02-15T09:12:22;2.65;;;0.70;;
83288;SDS011;73193;50.866;5.420;2024-02-15T09:13:53;4.38;;;1.15;;
83288;SDS011;73193;50.866;5.420;2024-02-15T09:15:25;5.20;;;0.75;;
83288;SDS011;73193;50.866;5.420;2024-02-15T09:16:56;3.08;;;0.85;;
83288;SDS011;73193;50.866;5.420;2024-02-15T09:18:26;4.30;;;0.77;;
83288;SDS011;73193;50.866;5.420;2024-02-15T09:19:57;2.55;;;0.40;;
83288;SDS011;73193;50.866;5.420;2024-02-15T09:21:28;2.30;;;0.95;;
83288;SDS011;73193;50.866;5.420;2024-02-15T09:22:59;2.03;;;0.80;;
83288;SDS011;73193;50.866;5.420;2024-02-15T09:24:36;3.20;;;1.00;;
83288;SDS011;73193;50.866;5.420;2024-02-15T09:26:07;0.90;;;0.55;;
83288;SDS011;73193;50.866;5.420;2024-02-15T09:27:40;2.50;;;0.60;;
83288;SDS011;73193;50.866;5.420;2024-02-15T09:30:42;2.70;;;0.52;;
83288;SDS011;73193;50.866;5.420;2024-02-15T09:32:13;3.53;;;1.02;;
83288;SDS011;73193;50.866;5.420;2024-02-15T09:33:44;1.70;;;0.60;;